O'Neill, NE (68763)

2:27 PM CDT on July 28, 2016 (GMT -0500)
The O'Neill Municipal-Baker | | Change Station

Elev 2031 ft 42.47 °N, 98.69 °W | Updated 12 minutes ago

Mostly Cloudy
Mostly Cloudy
77 °F
Feels Like 77 °F
N
7
Wind Variable Wind from North

Today
High -- | Low -- °F
--% Chance of Precip.
Yesterday
High -- | Low -- °F
Precip. -- in
Pressure 30.09 in
Visibility 10.0 miles
Clouds Scattered Clouds 2600 ft
Mostly Cloudy 3300 ft
Mostly Cloudy 12000 ft
Dew Point 62 °F
Humidity 60%
Rainfall 0.00 in
Snow Depth Not available.
6:23 AM 8:58 PM
Waning Crescent, 29% visible
METAR KONL 281915Z AUTO 35006KT 10SM SCT026 BKN033 BKN120 25/17 A3009 RMK AO2 T02510168
Pressure 30.09 in
Visibility 10.0 miles
Clouds Scattered Clouds 2600 ft
Mostly Cloudy 3300 ft
Mostly Cloudy 12000 ft
Dew Point 62 °F
Humidity 60%
Rainfall 0.00 in
Snow Depth Not available.
6:23 AM 8:58 PM
Waning Crescent, 29% visible
METAR KONL 281915Z AUTO 35006KT 10SM SCT026 BKN033 BKN120 25/17 A3009 RMK AO2 T02510168

10-Day Weather Forecast

Almanac

Astronomy

Jul. 28, 2016 Rise Set
Actual Time
Civil Twilight
Nautical Twilight
Astronomical Twilight
Moon
Length of Visible Light
Length of Day
Tomorrow will be .
, % of the Moon is Illuminated

Today's Extremes

State Highs State Lows

Community

WunderPhotos

Upload Photos

1,928,191 photos uploaded!

WunderBlog® & News

Nearby

Air Quality

  Air Quality AQ Index Pollutant
Not available.

Snow Depth

Station Depth Elevation

Earthquake Activity

City Distance Mag. Time & Date
Minimum magnitude displayed is 2.5.

Coastal Water Temperatures

Place Temperature

Stations

Nearby Weather Stations

Station Location Temp. Windchill Dew Point Humidity Wind Precip. Elev Updated Type
                   

Watches & Warnings

There are currently no watches in effect.